Time;durP1;ratioP1;P1;durP2;ratioP2;P2;SDS_P1;SDS_P2;PMS_P1;PMS_P2;Temp;Humidity;BMP_temperature;BMP_pressure;BME280_temperature;BME280_humidity;BME280_pressure;Samples;Min_cycle;Max_cycle;Signal;HPM_P1;HPM_P2
2023/12/03 00:02:12;;;;;;;0.00;0.00;;;;;;;4.23;89.60;100257.41;5061823;28;20041;-68
2023/12/03 00:04:38;;;;;;;0.25;0.10;;;;;;;4.29;87.99;100261.28;5066742;28;20451;-68
2023/12/03 00:07:04;;;;;;;0.45;0.10;;;;;;;4.28;89.73;100260.44;5062064;28;20025;-68
2023/12/03 00:09:30;;;;;;;0.43;0.10;;;;;;;4.29;88.97;100262.09;5062446;28;20443;-69
2023/12/03 00:11:55;;;;;;;0.20;0.10;;;;;;;4.33;89.44;100268.69;5062322;28;20123;-69
2023/12/03 00:14:21;;;;;;;1.23;0.00;;;;;;;4.38;90.57;100254.63;5048597;28;20131;-68
2023/12/03 00:16:46;;;;;;;0.25;0.00;;;;;;;4.39;93.13;100261.44;5064870;28;20051;-68
2023/12/03 00:19:12;;;;;;;0.63;0.10;;;;;;;4.33;89.61;100263.53;5063702;28;20119;-68
2023/12/03 00:21:38;;;;;;;1.70;0.20;;;;;;;4.36;89.08;100267.66;5051998;28;20028;-68
2023/12/03 00:24:03;;;;;;;0.20;0.10;;;;;;;4.40;90.77;100279.41;5062726;28;20386;-68
2023/12/03 00:26:29;;;;;;;0.90;0.10;;;;;;;4.42;93.09;100272.38;5065169;28;20389;-69
2023/12/03 00:28:54;;;;;;;0.32;0.20;;;;;;;4.42;96.35;100284.44;5060727;28;20036;-68
2023/12/03 00:31:20;;;;;;;0.30;0.10;;;;;;;4.41;98.81;100291.34;5044491;28;20101;-68
2023/12/03 00:33:45;;;;;;;0.95;0.20;;;;;;;4.43;100.00;100291.25;5066279;28;20432;-68
2023/12/03 00:36:11;;;;;;;0.65;0.13;;;;;;;4.45;100.00;100291.97;5059800;28;20032;-68
2023/12/03 00:38:36;;;;;;;1.25;0.17;;;;;;;4.42;100.00;100308.47;5065553;28;20039;-68
2023/12/03 00:41:02;;;;;;;0.43;0.10;;;;;;;4.30;100.00;100311.94;5067812;28;20576;-68
2023/12/03 00:43:27;;;;;;;0.73;0.30;;;;;;;4.28;100.00;100316.38;5066898;28;20091;-68
2023/12/03 00:45:53;;;;;;;1.42;0.20;;;;;;;4.33;100.00;100311.72;5064610;28;20047;-68
2023/12/03 00:48:19;;;;;;;0.57;0.10;;;;;;;4.40;100.00;100314.69;5066152;28;20051;-68
2023/12/03 00:50:44;;;;;;;1.00;0.10;;;;;;;4.40;100.00;100323.25;5058122;28;20470;-68
2023/12/03 00:53:10;;;;;;;1.00;0.20;;;;;;;4.31;100.00;100335.03;5060363;28;20044;-68
2023/12/03 00:55:35;;;;;;;0.38;0.10;;;;;;;4.34;96.65;100336.56;5062130;28;20111;-68
2023/12/03 00:58:01;;;;;;;0.30;0.20;;;;;;;4.43;100.00;100341.09;5062471;28;20025;-68
2023/12/03 01:00:26;;;;;;;0.55;0.30;;;;;;;4.46;100.00;100340.88;5058301;28;20025;-68
2023/12/03 01:02:51;;;;;;;0.20;0.05;;;;;;;4.42;100.00;100346.34;5050916;28;20059;-68
2023/12/03 01:05:17;;;;;;;0.30;0.10;;;;;;;4.43;100.00;100351.41;5067410;28;20409;-68
2023/12/03 01:07:42;;;;;;;2.60;0.20;;;;;;;4.36;100.00;100363.09;5062033;28;20025;-68
2023/12/03 01:10:08;;;;;;;0.57;0.10;;;;;;;4.25;100.00;100360.47;5065781;28;20028;-68
2023/12/03 01:12:34;;;;;;;1.48;0.10;;;;;;;4.22;97.55;100369.22;5069148;28;20044;-68
2023/12/03 01:14:59;;;;;;;0.20;0.10;;;;;;;4.26;96.92;100370.63;5070111;28;20445;-68
2023/12/03 01:17:25;;;;;;;0.00;0.00;;;;;;;4.32;96.36;100375.38;5064557;28;20035;-68
2023/12/03 01:19:50;;;;;;;0.68;0.10;;;;;;;4.34;98.38;100381.25;5063254;28;20494;-68
2023/12/03 01:22:16;;;;;;;0.10;0.00;;;;;;;4.41;92.00;100375.66;5059200;28;20037;-68
2023/12/03 01:24:41;;;;;;;0.10;0.00;;;;;;;4.47;89.86;100386.38;5058067;28;20036;-68
2023/12/03 01:27:07;;;;;;;0.10;0.00;;;;;;;4.54;85.64;100384.19;5056963;28;20025;-68
2023/12/03 01:29:33;;;;;;;0.30;0.00;;;;;;;4.61;87.59;100385.41;5060780;28;20075;-68
2023/12/03 01:31:58;;;;;;;0.30;0.05;;;;;;;4.65;89.65;100387.69;5061694;28;20028;-68
2023/12/03 01:34:24;;;;;;;1.20;0.00;;;;;;;4.66;91.95;100396.25;5062536;28;20025;-68
2023/12/03 01:36:49;;;;;;;0.05;0.00;;;;;;;4.55;90.13;100406.50;5063757;28;20032;-68
2023/12/03 01:39:15;;;;;;;0.52;0.00;;;;;;;4.57;92.52;100404.63;5057480;28;20025;-68
2023/12/03 01:41:40;;;;;;;0.10;0.00;;;;;;;4.49;92.74;100423.22;5059361;28;20043;-68
2023/12/03 01:44:06;;;;;;;0.65;0.08;;;;;;;4.47;94.67;100419.91;5063798;28;20028;-68
2023/12/03 01:46:32;;;;;;;0.30;0.08;;;;;;;4.40;91.85;100413.53;5060701;28;20450;-68
2023/12/03 01:48:58;;;;;;;0.22;0.10;;;;;;;4.39;91.82;100416.22;5045884;28;20116;-68
2023/12/03 01:51:23;;;;;;;0.10;0.00;;;;;;;4.43;93.43;100415.06;5062088;28;20079;-68
2023/12/03 01:53:50;;;;;;;0.43;0.10;;;;;;;4.41;94.93;100422.94;5065648;28;20111;-68
2023/12/03 01:56:16;;;;;;;0.65;0.00;;;;;;;4.37;94.19;100418.06;5057647;28;20039;-68
2023/12/03 01:58:42;;;;;;;0.05;0.03;;;;;;;4.31;93.84;100417.56;5057293;28;20378;-68
2023/12/03 02:01:08;;;;;;;0.25;0.00;;;;;;;4.31;92.21;100416.75;5060936;28;20093;-68
2023/12/03 02:03:33;;;;;;;0.38;0.10;;;;;;;4.34;94.54;100425.09;5045552;28;20037;-68
2023/12/03 02:06:07;;;;;;;0.17;0.05;;;;;;;4.30;90.99;100423.66;5065632;28;20039;-68
2023/12/03 02:08:33;;;;;;;0.32;0.10;;;;;;;4.30;91.93;100426.25;5061417;28;20436;-68
2023/12/03 02:11:00;;;;;;;0.15;0.00;;;;;;;4.31;93.97;100427.88;5061068;28;20037;-68
2023/12/03 02:13:29;;;;;;;0.10;0.05;;;;;;;4.30;96.23;100446.03;5064259;28;20564;-68
2023/12/03 02:15:55;;;;;;;0.30;0.00;;;;;;;4.27;97.83;100459.97;5064047;28;20078;-68
2023/12/03 02:18:20;;;;;;;0.20;0.00;;;;;;;4.26;100.00;100453.16;5059634;28;20112;-68
2023/12/03 02:20:46;;;;;;;0.73;0.20;;;;;;;4.25;100.00;100459.25;5063568;28;20029;-68
2023/12/03 02:23:11;;;;;;;0.13;0.03;;;;;;;4.23;100.00;100463.72;5035068;28;20478;-68
2023/12/03 02:25:37;;;;;;;0.30;0.10;;;;;;;4.22;100.00;100471.56;5065098;28;20028;-68
2023/12/03 02:28:02;;;;;;;0.50;0.10;;;;;;;4.16;100.00;100466.81;5060783;28;20035;-67
2023/12/03 02:30:28;;;;;;;0.52;0.10;;;;;;;4.14;100.00;100469.50;5062584;28;20493;-68
2023/12/03 02:32:53;;;;;;;0.28;0.10;;;;;;;4.13;100.00;100483.31;5062124;28;20112;-68
2023/12/03 02:35:19;;;;;;;0.30;0.00;;;;;;;4.14;100.00;100484.97;5057354;28;20037;-68
2023/12/03 02:37:44;;;;;;;0.40;0.10;;;;;;;4.15;100.00;100491.78;5053946;28;20063;-68
2023/12/03 02:40:09;;;;;;;0.10;0.00;;;;;;;4.16;100.00;100495.19;5061640;28;20213;-68
2023/12/03 02:42:35;;;;;;;0.20;0.00;;;;;;;4.15;100.00;100502.09;5067691;28;20040;-68
2023/12/03 02:45:00;;;;;;;0.60;0.10;;;;;;;4.15;100.00;100486.63;5054655;28;20486;-68
2023/12/03 02:47:26;;;;;;;1.05;0.10;;;;;;;4.05;100.00;100492.47;5060000;28;20039;-68
2023/12/03 02:49:51;;;;;;;0.40;0.10;;;;;;;4.02;100.00;100495.25;5064653;28;20032;-68
2023/12/03 02:52:17;;;;;;;2.83;0.10;;;;;;;4.01;100.00;100484.13;5061219;28;20035;-68
2023/12/03 02:54:42;;;;;;;0.28;0.10;;;;;;;4.02;100.00;100485.78;5065986;28;20071;-67
2023/12/03 02:57:07;;;;;;;0.38;0.10;;;;;;;4.05;100.00;100490.72;5059228;28;20093;-68
2023/12/03 02:59:33;;;;;;;2.85;0.10;;;;;;;4.02;100.00;100493.50;5062899;28;20041;-68
2023/12/03 03:01:58;;;;;;;0.32;0.20;;;;;;;4.02;100.00;100490.94;5064423;28;20089;-68
2023/12/03 03:04:24;;;;;;;0.32;0.10;;;;;;;4.04;100.00;100503.72;5059006;28;20107;-68
2023/12/03 03:06:49;;;;;;;0.50;0.10;;;;;;;4.03;100.00;100505.47;5058524;28;20021;-69
2023/12/03 03:09:14;;;;;;;2.17;0.13;;;;;;;4.01;100.00;100502.19;5056858;28;20028;-68
2023/12/03 03:11:40;;;;;;;0.10;0.00;;;;;;;3.98;100.00;100510.94;5058916;28;20028;-68
2023/12/03 03:14:05;;;;;;;1.02;0.10;;;;;;;3.99;100.00;100504.84;5058878;28;20143;-67
2023/12/03 03:16:31;;;;;;;0.60;0.10;;;;;;;3.99;100.00;100506.59;5056867;28;20071;-67
2023/12/03 03:18:56;;;;;;;0.45;0.20;;;;;;;3.99;100.00;100510.00;5053328;28;20504;-67
2023/12/03 03:21:22;;;;;;;0.55;0.10;;;;;;;3.98;100.00;100521.25;5063511;28;20119;-67
2023/12/03 03:23:47;;;;;;;0.30;0.10;;;;;;;3.98;100.00;100523.81;5060818;28;20028;-67
2023/12/03 03:26:13;;;;;;;0.30;0.10;;;;;;;3.95;100.00;100524.03;5064095;28;20029;-68
2023/12/03 03:28:39;;;;;;;0.38;0.10;;;;;;;3.97;100.00;100522.16;5062881;28;20500;-68
2023/12/03 03:31:04;;;;;;;0.32;0.10;;;;;;;3.98;100.00;100526.41;5054641;28;20091;-67
2023/12/03 03:33:30;;;;;;;0.68;0.10;;;;;;;3.97;100.00;100529.09;5060059;28;20056;-68
2023/12/03 03:35:55;;;;;;;0.90;0.20;;;;;;;3.91;100.00;100530.31;5059812;28;20055;-68
2023/12/03 03:38:21;;;;;;;0.43;0.20;;;;;;;3.88;100.00;100545.97;5054049;28;20039;-68
2023/12/03 03:40:46;;;;;;;0.17;0.08;;;;;;;3.89;100.00;100529.56;5065055;28;20028;-68
2023/12/03 03:43:13;;;;;;;0.40;0.10;;;;;;;3.90;100.00;100548.44;5063993;28;20033;-67
2023/12/03 03:45:39;;;;;;;0.45;0.00;;;;;;;3.88;100.00;100550.31;5059759;28;20037;-68
2023/12/03 03:48:04;;;;;;;0.73;0.10;;;;;;;3.88;100.00;100547.72;5061420;28;20499;-68
2023/12/03 03:50:30;;;;;;;0.60;0.10;;;;;;;3.94;86.53;100550.72;5062671;28;20037;-68
2023/12/03 03:52:55;;;;;;;0.30;0.00;;;;;;;4.17;85.37;100556.97;5062538;28;20036;-68
2023/12/03 03:55:21;;;;;;;0.50;0.10;;;;;;;4.32;86.72;100568.81;5055147;28;20037;-68
2023/12/03 03:57:46;;;;;;;0.73;0.10;;;;;;;4.34;90.39;100577.28;5043416;28;20152;-68
2023/12/03 04:00:12;;;;;;;0.40;0.10;;;;;;;4.26;92.89;100571.81;5059199;28;20119;-68
2023/12/03 04:02:38;;;;;;;0.43;0.10;;;;;;;4.19;95.20;100586.06;5064589;28;20040;-67
2023/12/03 04:05:04;;;;;;;0.45;0.17;;;;;;;4.11;94.01;100577.16;5058407;28;20347;-67
2023/12/03 04:07:30;;;;;;;2.38;0.10;;;;;;;4.08;96.06;100582.53;5062609;28;20683;-68
2023/12/03 04:09:55;;;;;;;1.20;0.10;;;;;;;4.00;89.92;100586.44;5064697;28;20119;-68
2023/12/03 04:12:20;;;;;;;0.30;0.10;;;;;;;4.23;79.90;100573.78;5063545;28;20033;-67
2023/12/03 04:14:46;;;;;;;0.75;0.10;;;;;;;4.34;86.56;100590.19;5060834;28;20150;-67
2023/12/03 04:17:11;;;;;;;0.20;0.00;;;;;;;4.34;89.02;100595.34;5059362;28;20088;-67
2023/12/03 04:19:37;;;;;;;0.30;0.10;;;;;;;4.28;91.43;100600.91;5066972;28;20020;-67
2023/12/03 04:22:02;;;;;;;0.28;0.10;;;;;;;4.24;93.63;100602.06;5061823;28;20029;-67
2023/12/03 04:24:28;;;;;;;0.38;0.20;;;;;;;4.17;95.38;100608.53;5058722;28;20036;-67
2023/12/03 04:26:53;;;;;;;0.60;0.10;;;;;;;4.13;94.48;100606.25;5063336;28;20037;-67
2023/12/03 04:29:18;;;;;;;1.15;0.10;;;;;;;4.15;95.27;100614.72;5058944;28;20032;-68
2023/12/03 04:31:44;;;;;;;1.95;0.20;;;;;;;4.14;95.57;100615.66;5066756;28;20036;-67
2023/12/03 04:34:09;;;;;;;0.50;0.10;;;;;;;4.12;96.14;100631.22;5063996;28;20043;-68
2023/12/03 04:36:35;;;;;;;1.75;0.10;;;;;;;4.11;97.81;100637.31;5046611;28;20067;-67
2023/12/03 04:39:01;;;;;;;0.30;0.10;;;;;;;4.03;95.18;100636.97;5062143;28;20140;-67
2023/12/03 04:41:37;;;;;;;0.60;0.20;;;;;;;3.99;94.19;100631.19;5062633;28;20036;-68
2023/12/03 04:44:04;;;;;;;0.52;0.10;;;;;;;4.04;96.66;100643.78;5064271;28;20029;-68
2023/12/03 04:46:30;;;;;;;0.30;0.03;;;;;;;4.02;98.17;100640.47;5060585;28;20028;-68
2023/12/03 04:48:55;;;;;;;2.30;0.20;;;;;;;3.99;98.05;100653.56;5061457;28;20082;-68
2023/12/03 04:51:21;;;;;;;0.95;0.20;;;;;;;3.93;98.40;100639.31;5063875;28;20091;-68
2023/12/03 04:53:47;;;;;;;0.45;0.10;;;;;;;3.89;97.97;100655.88;5063454;28;20039;-68
2023/12/03 04:56:12;;;;;;;0.30;0.10;;;;;;;3.89;86.59;100644.75;5056995;28;20040;-67
2023/12/03 04:58:38;;;;;;;0.25;0.10;;;;;;;4.26;80.85;100656.09;5061138;28;20119;-67
2023/12/03 05:01:03;;;;;;;0.60;0.10;;;;;;;4.29;83.72;100645.59;5060203;28;20037;-67
2023/12/03 05:03:29;;;;;;;0.38;0.10;;;;;;;4.31;86.51;100666.94;5059915;28;20033;-68
2023/12/03 05:05:54;;;;;;;10.32;2.65;;;;;;;4.20;87.17;100667.66;5066465;28;20024;-68
2023/12/03 05:08:20;;;;;;;3.88;0.75;;;;;;;4.16;90.38;100667.97;5058862;28;20127;-68
2023/12/03 05:10:45;;;;;;;1.83;0.55;;;;;;;4.09;90.31;100677.84;5066823;28;20684;-67
2023/12/03 05:13:11;;;;;;;3.20;0.50;;;;;;;4.05;92.31;100680.69;5065303;28;20143;-67
2023/12/03 05:15:36;;;;;;;1.15;0.40;;;;;;;4.01;93.62;100685.22;5038906;28;20477;-67
2023/12/03 05:18:02;;;;;;;1.70;0.30;;;;;;;3.99;94.80;100690.47;5041270;28;20021;-67
2023/12/03 05:20:27;;;;;;;1.25;0.28;;;;;;;3.97;96.07;100688.91;5057314;28;20061;-67
2023/12/03 05:22:53;;;;;;;0.60;0.20;;;;;;;3.98;96.54;100698.31;5060747;28;20056;-67
2023/12/03 05:25:19;;;;;;;1.35;0.17;;;;;;;3.94;96.23;100694.25;5065085;28;20044;-67
2023/12/03 05:27:45;;;;;;;0.80;0.20;;;;;;;3.91;95.04;100694.47;5045120;28;20028;-68
2023/12/03 05:30:13;;;;;;;1.48;0.30;;;;;;;3.90;97.36;100698.78;5064883;28;20051;-67
2023/12/03 05:32:40;;;;;;;1.08;0.20;;;;;;;3.89;99.18;100696.31;5062844;28;20041;-67
2023/12/03 05:35:05;;;;;;;1.08;0.50;;;;;;;3.80;97.15;100695.13;5067828;28;20032;-68
2023/12/03 05:37:31;;;;;;;0.80;0.20;;;;;;;3.80;96.78;100713.16;5062585;28;20118;-67
2023/12/03 05:39:56;;;;;;;1.00;0.10;;;;;;;3.82;99.05;100705.34;5066656;28;20036;-67
2023/12/03 05:42:22;;;;;;;0.90;0.20;;;;;;;3.72;96.42;100715.41;5063447;28;20029;-67
2023/12/03 05:44:48;;;;;;;0.45;0.10;;;;;;;3.74;93.08;100723.88;5060213;28;20028;-67
2023/12/03 05:47:13;;;;;;;0.45;0.15;;;;;;;3.77;95.78;100731.44;5062120;28;20111;-67
2023/12/03 05:49:39;;;;;;;0.90;0.20;;;;;;;3.77;97.26;100733.19;5064688;28;20036;-68
2023/12/03 05:52:05;;;;;;;0.47;0.20;;;;;;;3.63;94.84;100739.16;5059816;28;20036;-67
2023/12/03 05:54:30;;;;;;;0.40;0.20;;;;;;;3.57;97.30;100742.13;5063568;28;20119;-67
2023/12/03 05:56:56;;;;;;;0.90;0.30;;;;;;;3.60;98.61;100753.06;5059116;28;20601;-67
2023/12/03 05:59:25;;;;;;;0.43;0.10;;;;;;;3.93;77.20;100739.84;5063264;28;20624;-67
2023/12/03 06:01:51;;;;;;;0.90;0.10;;;;;;;4.26;78.78;100746.38;5061200;28;20040;-67
2023/12/03 06:04:17;;;;;;;0.43;0.10;;;;;;;4.27;83.96;100746.28;5058414;28;20033;-67
2023/12/03 06:06:43;;;;;;;0.68;0.20;;;;;;;4.09;82.62;100768.09;5063468;28;20032;-67
2023/12/03 06:09:09;;;;;;;0.50;0.10;;;;;;;4.16;76.89;100765.94;5060440;28;20116;-68
2023/12/03 06:11:35;;;;;;;0.10;0.10;;;;;;;4.23;71.27;100756.91;5062638;28;20936;-67
2023/12/03 06:14:02;;;;;;;0.20;0.00;;;;;;;4.28;79.90;100754.84;5057842;28;20186;-67
2023/12/03 06:16:27;;;;;;;0.38;0.10;;;;;;;4.14;74.75;100766.03;5057907;28;20488;-67
2023/12/03 06:18:53;;;;;;;0.30;0.10;;;;;;;4.28;70.85;100760.81;5063840;28;20040;-67
2023/12/03 06:21:18;;;;;;;0.50;0.10;;;;;;;4.37;76.60;100759.41;5064088;28;20436;-67
2023/12/03 06:23:44;;;;;;;0.88;0.20;;;;;;;4.36;71.91;100767.25;5059203;28;20040;-68
2023/12/03 06:26:09;;;;;;;0.30;0.10;;;;;;;4.33;72.14;100766.53;5055522;28;20025;-67
2023/12/03 06:28:35;;;;;;;0.25;0.10;;;;;;;4.33;69.29;100768.28;5052755;28;20550;-68
2023/12/03 06:31:01;;;;;;;0.43;0.10;;;;;;;4.31;69.26;100772.69;5068138;28;20048;-67
2023/12/03 06:33:26;;;;;;;0.25;0.10;;;;;;;4.30;71.19;100789.09;5057468;28;20029;-67
2023/12/03 06:35:53;;;;;;;0.43;0.10;;;;;;;4.25;71.66;100793.75;5057771;28;20043;-67
2023/12/03 06:38:19;;;;;;;0.60;0.10;;;;;;;4.31;65.92;100794.16;5058102;28;20036;-67
2023/12/03 06:40:44;;;;;;;0.70;0.10;;;;;;;4.40;68.87;100802.25;5055567;28;20504;-67
2023/12/03 06:43:10;;;;;;;0.50;0.10;;;;;;;4.39;67.57;100798.03;5057085;28;20056;-67
2023/12/03 06:45:37;;;;;;;0.32;0.05;;;;;;;4.33;70.23;100815.53;5064428;28;20520;-67
2023/12/03 06:48:03;;;;;;;0.85;0.10;;;;;;;4.23;76.54;100818.81;5060873;28;20082;-67
2023/12/03 06:50:28;;;;;;;0.75;0.10;;;;;;;4.27;66.98;100823.66;5060967;28;20040;-67
2023/12/03 06:52:54;;;;;;;1.83;0.30;;;;;;;4.25;75.70;100812.59;5054757;28;20103;-68
2023/12/03 06:55:19;;;;;;;0.30;0.10;;;;;;;4.21;68.84;100829.22;5036053;28;20386;-67
2023/12/03 06:57:45;;;;;;;0.82;0.10;;;;;;;4.33;66.64;100833.59;5052545;28;20305;-68
2023/12/03 07:00:10;;;;;;;0.32;0.08;;;;;;;4.40;65.58;100825.47;5054437;28;20090;-68
2023/12/03 07:02:36;;;;;;;0.50;0.10;;;;;;;4.37;71.02;100841.16;5053279;28;20117;-68
2023/12/03 07:05:02;;;;;;;0.50;0.20;;;;;;;4.30;69.33;100833.78;5056470;28;20029;-67
2023/12/03 07:07:27;;;;;;;0.43;0.10;;;;;;;4.38;62.08;100842.81;5049695;28;20116;-68
2023/12/03 07:09:53;;;;;;;0.50;0.10;;;;;;;4.47;68.03;100849.97;5051870;28;20119;-68
2023/12/03 07:12:18;;;;;;;0.60;0.10;;;;;;;4.47;70.76;100862.88;5057641;28;20044;-68
2023/12/03 07:14:44;;;;;;;0.43;0.10;;;;;;;4.43;68.52;100851.91;5053205;28;20055;-68
2023/12/03 07:17:10;;;;;;;0.63;0.30;;;;;;;4.46;69.06;100868.97;5059507;28;20037;-68
2023/12/03 07:19:35;;;;;;;0.60;0.10;;;;;;;4.47;69.80;100870.63;5050612;28;20039;-68
2023/12/03 07:22:01;;;;;;;1.10;0.10;;;;;;;4.49;69.54;100869.59;5052812;28;20032;-68
2023/12/03 07:24:26;;;;;;;0.20;0.10;;;;;;;4.54;66.19;100880.47;5049787;28;20063;-68
2023/12/03 07:26:52;;;;;;;0.45;0.10;;;;;;;4.57;72.11;100882.03;5061256;28;20028;-68
2023/12/03 07:29:18;;;;;;;1.60;0.20;;;;;;;4.49;69.31;100884.25;5060339;28;20036;-68
2023/12/03 07:31:44;;;;;;;0.60;0.15;;;;;;;4.45;67.97;100890.53;5060863;28;20130;-68
2023/12/03 07:34:09;;;;;;;0.43;0.10;;;;;;;4.47;68.79;100899.00;5057766;28;20517;-68
2023/12/03 07:36:34;;;;;;;0.95;0.10;;;;;;;4.56;69.97;100903.59;5056954;28;20033;-68
2023/12/03 07:39:00;;;;;;;0.73;0.10;;;;;;;4.52;73.14;100910.69;5062793;28;20482;-69
2023/12/03 07:41:25;;;;;;;1.02;0.30;;;;;;;4.44;74.26;100900.00;5064294;28;20466;-68
2023/12/03 07:43:51;;;;;;;0.77;0.17;;;;;;;4.44;64.91;100906.91;5057100;28;20045;-68
2023/12/03 07:46:17;;;;;;;0.63;0.10;;;;;;;4.52;66.42;100920.19;5061816;28;20029;-69
2023/12/03 07:48:42;;;;;;;0.30;0.10;;;;;;;4.54;69.48;100923.50;5060940;28;20567;-68
2023/12/03 07:51:11;;;;;;;0.30;0.10;;;;;;;4.45;68.88;100922.31;5056728;28;20115;-68
2023/12/03 07:53:37;;;;;;;0.60;0.20;;;;;;;4.41;74.16;100930.31;5054253;28;20032;-68
2023/12/03 07:56:03;;;;;;;1.80;0.20;;;;;;;4.30;77.09;100933.56;5064207;28;20127;-68
2023/12/03 07:58:29;;;;;;;4.72;0.30;;;;;;;4.19;79.01;100926.50;5061854;28;20397;-68
2023/12/03 08:00:54;;;;;;;1.95;0.30;;;;;;;4.07;81.26;100941.88;5053595;28;20035;-68
2023/12/03 08:03:20;;;;;;;1.05;0.20;;;;;;;4.08;78.07;100939.19;5061675;28;20107;-68
2023/12/03 08:05:45;;;;;;;0.50;0.10;;;;;;;4.20;76.78;100935.88;5060561;28;20094;-68
2023/12/03 08:08:11;;;;;;;1.95;0.28;;;;;;;4.31;77.02;100955.84;5069429;28;20500;-67
2023/12/03 08:10:36;;;;;;;0.70;0.20;;;;;;;4.35;78.58;100962.50;5065049;28;20037;-67
2023/12/03 08:13:02;;;;;;;4.00;0.22;;;;;;;4.30;79.95;100961.94;5063046;28;20055;-67
2023/12/03 08:15:27;;;;;;;1.67;0.20;;;;;;;4.23;80.68;100958.91;5060687;28;20058;-67
2023/12/03 08:17:52;;;;;;;1.15;0.10;;;;;;;4.16;80.81;100967.94;5067832;28;20104;-67
2023/12/03 08:20:18;;;;;;;0.68;0.13;;;;;;;4.17;80.41;100979.91;5068548;28;20185;-67
2023/12/03 08:22:43;;;;;;;0.68;0.13;;;;;;;4.24;79.50;100978.63;5071228;28;20055;-67
2023/12/03 08:25:09;;;;;;;1.85;0.10;;;;;;;4.22;79.50;100977.91;5070378;28;20024;-67
2023/12/03 08:27:34;;;;;;;1.52;0.20;;;;;;;4.42;74.66;100989.59;5061898;28;20064;-66
2023/12/03 08:30:00;;;;;;;0.82;0.10;;;;;;;4.58;71.62;101000.66;5062330;28;20186;-66
2023/12/03 08:32:25;;;;;;;0.20;0.10;;;;;;;4.68;66.95;101000.91;5066021;28;20047;-68
2023/12/03 08:34:51;;;;;;;0.90;0.10;;;;;;;4.69;72.49;101000.00;5067708;28;20111;-67
2023/12/03 08:37:16;;;;;;;0.80;0.10;;;;;;;4.69;74.16;101014.66;5066701;28;20027;-67
2023/12/03 08:39:42;;;;;;;0.60;0.17;;;;;;;4.64;76.77;101025.25;5057254;28;20116;-67
2023/12/03 08:42:07;;;;;;;0.65;0.15;;;;;;;4.61;79.08;101025.44;5059505;28;20111;-67
2023/12/03 08:44:33;;;;;;;0.70;0.15;;;;;;;4.57;80.08;101034.28;5060706;28;20124;-67
2023/12/03 08:46:59;;;;;;;3.67;2.10;;;;;;;4.57;80.76;101032.53;5059851;28;20036;-68
2023/12/03 08:49:26;;;;;;;4.60;1.88;;;;;;;4.63;81.89;101044.25;5058999;28;20036;-67
2023/12/03 08:51:51;;;;;;;2.13;0.65;;;;;;;4.67;82.85;101053.47;5062118;28;20067;-67
2023/12/03 08:54:17;;;;;;;2.35;1.15;;;;;;;4.73;81.66;101058.22;5061981;28;20036;-68
2023/12/03 08:56:43;;;;;;;1.13;0.22;;;;;;;4.71;74.95;101057.53;5061587;28;20028;-68
2023/12/03 08:59:09;;;;;;;1.40;0.30;;;;;;;4.79;78.78;101065.59;5070353;28;20107;-67
2023/12/03 09:01:34;;;;;;;1.27;0.38;;;;;;;4.86;79.29;101072.06;5059483;28;21342;-67
2023/12/03 09:04:00;;;;;;;0.88;0.20;;;;;;;4.95;81.17;101075.84;5063626;28;20108;-67
2023/12/03 09:06:25;;;;;;;0.93;0.20;;;;;;;4.97;80.66;101069.66;5065170;28;20365;-67
2023/12/03 09:08:50;;;;;;;0.75;0.30;;;;;;;5.03;81.42;101075.38;5059194;28;20071;-67
2023/12/03 09:11:16;;;;;;;0.80;0.20;;;;;;;5.03;79.90;101068.47;5051683;28;20036;-67
2023/12/03 09:13:41;;;;;;;0.65;0.20;;;;;;;5.10;78.55;101089.56;5052331;28;20045;-67
2023/12/03 09:16:07;;;;;;;1.05;0.40;;;;;;;5.20;81.52;101088.88;5060327;28;20119;-67
2023/12/03 09:18:38;;;;;;;0.73;0.20;;;;;;;5.13;78.50;101089.38;5065854;28;20079;-68
2023/12/03 09:21:13;;;;;;;0.88;0.28;;;;;;;5.12;77.47;101103.22;5061542;28;20370;-68
2023/12/03 09:23:39;;;;;;;1.35;0.10;;;;;;;5.09;67.68;101108.56;5065075;28;20033;-66
2023/12/03 09:26:05;;;;;;;1.17;0.20;;;;;;;5.26;73.62;101111.75;5065022;28;20040;-65
2023/12/03 09:28:32;;;;;;;0.57;0.15;;;;;;;5.31;68.90;101103.72;5062076;28;20033;-66
2023/12/03 09:30:58;;;;;;;0.60;0.10;;;;;;;5.16;63.30;101121.03;5063547;28;20024;-68
2023/12/03 09:33:28;;;;;;;0.95;0.20;;;;;;;5.09;59.98;101113.75;5059370;28;20028;-67
2023/12/03 09:35:55;;;;;;;0.35;0.10;;;;;;;5.05;60.69;101104.53;5058980;28;20039;-68
2023/12/03 09:38:22;;;;;;;0.55;0.22;;;;;;;5.08;63.67;101125.00;5058077;28;20036;-68
2023/12/03 09:40:48;;;;;;;0.47;0.17;;;;;;;5.13;62.00;101115.22;5054405;28;20024;-68
2023/12/03 09:43:18;;;;;;;0.80;0.30;;;;;;;5.18;63.31;101128.69;5064184;28;20044;-68
2023/12/03 09:45:45;;;;;;;0.85;0.20;;;;;;;5.08;62.64;101133.56;5059754;28;20024;-68
2023/12/03 09:48:13;;;;;;;0.20;0.10;;;;;;;5.03;61.41;101124.44;5066230;28;20112;-68
2023/12/03 09:50:42;;;;;;;0.52;0.30;;;;;;;5.02;64.46;101112.44;5061579;28;20033;-67
2023/12/03 09:53:10;;;;;;;0.50;0.10;;;;;;;5.03;59.36;101116.69;5059241;28;20112;-67
2023/12/03 09:55:38;;;;;;;0.55;0.10;;;;;;;5.08;61.68;101125.81;5060599;28;20029;-67
2023/12/03 09:58:04;;;;;;;0.50;0.20;;;;;;;5.13;62.28;101125.56;5064412;28;20032;-67
2023/12/03 10:00:31;;;;;;;0.63;0.15;;;;;;;5.08;57.91;101136.16;5063327;28;20082;-67
2023/12/03 10:02:57;;;;;;;0.30;0.10;;;;;;;5.09;58.74;101129.25;5056813;28;20029;-67
2023/12/03 10:05:22;;;;;;;0.40;0.10;;;;;;;5.11;61.82;101133.41;5056243;28;20035;-66
2023/12/03 10:07:51;;;;;;;2.88;1.48;;;;;;;5.24;65.81;101134.28;5066722;28;20024;-68
2023/12/03 10:10:19;;;;;;;0.98;0.20;;;;;;;5.31;65.10;101124.41;5059180;28;20437;-68
2023/12/03 10:12:48;;;;;;;1.17;0.30;;;;;;;5.44;70.15;101135.66;5061212;28;20045;-68
2023/12/03 10:15:14;;;;;;;0.82;0.20;;;;;;;5.65;71.41;101142.06;5060812;28;20043;-68
2023/12/03 10:17:40;;;;;;;1.75;0.20;;;;;;;5.66;67.52;101141.16;5059447;28;20042;-67
2023/12/03 10:20:22;;;;;;;0.60;0.10;;;;;;;5.46;55.65;101130.38;5059073;28;20035;-67
2023/12/03 10:22:51;;;;;;;0.75;0.20;;;;;;;5.32;59.46;101138.97;5062353;28;20051;-68
2023/12/03 10:25:33;;;;;;;1.05;0.30;;;;;;;5.29;55.27;101136.59;5061334;28;20029;-66
2023/12/03 10:28:01;;;;;;;1.25;0.40;;;;;;;5.31;61.75;101137.31;5061933;28;20070;-67
2023/12/03 10:30:27;;;;;;;0.70;0.20;;;;;;;5.40;61.26;101128.19;5054154;28;20090;-68
2023/12/03 10:32:53;;;;;;;0.47;0.20;;;;;;;5.42;61.16;101131.50;5057239;28;20029;-64
2023/12/03 10:35:21;;;;;;;1.52;0.20;;;;;;;5.49;59.67;101137.94;5053634;28;20028;-63
2023/12/03 10:37:49;;;;;;;1.60;0.20;;;;;;;5.71;67.23;101143.41;5054451;28;20065;-64
2023/12/03 10:40:16;;;;;;;1.75;0.40;;;;;;;5.87;67.22;101143.28;5065404;28;20028;-64
2023/12/03 10:42:45;;;;;;;1.05;0.38;;;;;;;6.01;70.85;101142.44;5061619;28;20031;-64
2023/12/03 10:45:13;;;;;;;0.90;0.30;;;;;;;6.16;72.49;101133.66;5056554;28;20043;-65
2023/12/03 10:47:40;;;;;;;1.23;0.28;;;;;;;6.27;73.62;101137.22;5058000;28;20025;-67
2023/12/03 10:50:07;;;;;;;0.60;0.30;;;;;;;6.26;73.32;101134.72;5065068;28;20028;-67
2023/12/03 10:52:35;;;;;;;1.05;0.40;;;;;;;6.30;73.99;101137.00;5058414;28;20040;-67
2023/12/03 10:55:05;;;;;;;1.23;0.30;;;;;;;6.40;74.26;101132.06;5056166;28;20093;-67
2023/12/03 10:57:33;;;;;;;1.70;0.30;;;;;;;6.40;74.99;101134.66;5056878;28;20025;-67
2023/12/03 11:00:05;;;;;;;0.90;0.32;;;;;;;6.40;74.89;101131.22;5055255;28;20067;-67
2023/12/03 11:02:53;;;;;;;0.60;0.30;;;;;;;6.39;74.46;101134.75;5063691;28;20044;-67
2023/12/03 11:05:26;;;;;;;2.58;0.30;;;;;;;6.41;75.06;101136.31;5045086;28;20068;-67
2023/12/03 11:07:53;;;;;;;0.65;0.20;;;;;;;6.38;75.22;101143.44;5061734;28;20428;-67
2023/12/03 11:10:19;;;;;;;0.82;0.28;;;;;;;6.28;75.94;101133.69;5057320;28;20033;-67
2023/12/03 11:12:47;;;;;;;0.60;0.20;;;;;;;6.12;75.48;101138.22;5059362;28;20025;-67
2023/12/03 11:15:15;;;;;;;1.38;0.32;;;;;;;6.08;76.75;101141.94;5065645;28;20151;-67
2023/12/03 11:17:48;;;;;;;1.30;0.50;;;;;;;6.07;75.67;101118.75;5061801;28;20039;-67
2023/12/03 11:20:23;;;;;;;0.47;0.20;;;;;;;6.02;74.97;101121.63;5062750;28;20059;-67
2023/12/03 11:23:05;;;;;;;1.30;0.20;;;;;;;6.04;73.26;101100.84;5058085;28;20025;-64
2023/12/03 11:25:35;;;;;;;1.20;0.55;;;;;;;6.17;67.27;101112.84;5053632;28;20041;-64
2023/12/03 11:28:01;;;;;;;1.52;0.35;;;;;;;6.14;63.23;101113.09;5053123;28;20032;-64